createdAt,value
2018-01-31T01:52:20.791Z,30.00
2018-01-31T01:54:25.543Z,25.93
2018-01-31T01:56:54.847Z,12.50
2018-01-31T01:59:24.155Z,24.50
2018-01-31T02:01:52.682Z,31.50
2018-01-31T02:04:21.218Z,17.50
2018-01-31T02:06:50.466Z,21.73
2018-01-31T02:09:18.954Z,39.67
2018-01-31T02:11:48.268Z,16.53
2018-01-31T02:14:16.779Z,33.60
2018-01-31T02:16:46.027Z,14.27
2018-01-31T02:19:14.563Z,37.63
2018-01-31T02:21:43.806Z,32.63
2018-01-31T02:24:12.341Z,34.17
2018-01-31T02:26:41.659Z,42.13
2018-01-31T02:29:10.147Z,41.87
2018-01-31T02:31:38.631Z,15.70
2018-01-31T02:34:07.432Z,10.87
2018-01-31T02:36:35.924Z,11.10
2018-01-31T02:42:10.839Z,12.83
2018-01-31T02:44:39.400Z,15.53
2018-01-31T02:47:08.643Z,13.63
2018-01-31T02:49:37.128Z,14.20
2018-01-31T02:52:05.913Z,22.67
2018-01-31T02:54:34.407Z,15.53
2018-01-31T02:57:02.887Z,11.03
2018-01-31T02:59:31.430Z,11.60
2018-01-31T03:05:04.594Z,9.67
2018-01-31T03:07:33.172Z,8.70
2018-01-31T03:10:01.659Z,9.67
2018-01-31T03:12:30.138Z,9.67
2018-01-31T03:14:58.849Z,17.30
2018-01-31T03:17:27.330Z,17.00
2018-01-31T03:19:55.863Z,18.83
2018-01-31T03:22:24.396Z,16.43
2018-01-31T03:24:53.695Z,13.17
2018-01-31T03:27:23.003Z,14.60
2018-01-31T03:29:52.367Z,27.10
2018-01-31T03:32:20.907Z,30.23
2018-01-31T03:34:49.407Z,18.57
2018-01-31T03:37:17.938Z,13.87
2018-01-31T03:39:46.418Z,19.57
2018-01-31T03:42:14.962Z,13.07
2018-01-31T03:44:43.778Z,14.13
2018-01-31T03:47:12.317Z,12.57
2018-01-31T03:49:40.851Z,13.27
2018-01-31T03:52:09.387Z,12.50
2018-01-31T03:54:37.870Z,13.27
2018-01-31T03:57:06.352Z,15.50
2018-01-31T03:59:34.882Z,19.47
2018-01-31T04:02:03.432Z,18.80
2018-01-31T04:04:31.919Z,14.80
2018-01-31T04:07:00.452Z,16.90
2018-01-31T04:09:29.747Z,14.43
2018-01-31T04:11:59.003Z,14.97
2018-01-31T04:14:28.696Z,16.23
2018-01-31T04:16:57.240Z,17.83
2018-01-31T04:19:26.502Z,21.50
2018-01-31T04:21:55.079Z,26.40
2018-01-31T04:24:23.578Z,28.50
2018-01-31T04:26:52.068Z,31.30
2018-01-31T04:29:21.379Z,37.47
2018-01-31T04:31:50.635Z,29.10
2018-01-31T04:34:19.119Z,34.90
2018-01-31T04:36:47.651Z,42.50
2018-01-31T04:39:16.947Z,108.20
2018-01-31T04:41:46.227Z,141.93
2018-01-31T04:44:15.123Z,69.73
2018-01-31T04:46:44.384Z,49.20
2018-01-31T04:49:12.882Z,55.30
2018-01-31T04:51:41.430Z,54.90
2018-01-31T04:54:09.971Z,49.87
2018-01-31T04:56:39.315Z,50.87
2018-01-31T04:59:07.867Z,57.40
2018-01-31T05:01:37.171Z,58.17
2018-01-31T05:04:05.666Z,55.23
2018-01-31T05:06:34.211Z,61.83
2018-01-31T05:09:02.692Z,64.83
2018-01-31T05:11:31.244Z,304.17
2018-01-31T05:13:59.844Z,219.47
2018-01-31T05:16:28.373Z,114.47
2018-01-31T05:18:56.895Z,116.30
2018-01-31T05:21:25.451Z,72.67
2018-01-31T05:23:53.939Z,48.43
2018-01-31T05:26:22.434Z,43.30
2018-01-31T05:28:51.171Z,36.67
2018-01-31T05:31:20.428Z,40.77
2018-01-31T05:33:48.919Z,31.20
2018-01-31T05:36:17.458Z,30.50
2018-01-31T05:38:45.947Z,28.60
2018-01-31T05:41:14.439Z,35.20
2018-01-31T05:43:43.170Z,26.77
2018-01-31T05:46:11.687Z,31.73
2018-01-31T05:48:40.174Z,28.30
2018-01-31T05:51:08.717Z,32.50
2018-01-31T05:53:38.031Z,32.60
2018-01-31T05:56:07.338Z,38.33
2018-01-31T05:58:36.937Z,38.03
2018-01-31T06:01:06.199Z,40.07
2018-01-31T06:03:34.691Z,43.83
2018-01-31T06:06:03.222Z,45.07
2018-01-31T06:08:31.937Z,48.97
2018-01-31T06:11:00.577Z,78.60
2018-01-31T06:13:30.294Z,97.83
2018-01-31T06:15:58.791Z,109.93
2018-01-31T06:18:27.279Z,108.50
2018-01-31T06:20:55.979Z,103.30
2018-01-31T06:23:24.472Z,117.63
2018-01-31T06:25:52.959Z,116.87
2018-01-31T06:28:22.999Z,92.33
2018-01-31T06:30:53.053Z,73.80
2018-01-31T06:33:21.768Z,92.60
2018-01-31T06:35:50.488Z,118.27
2018-01-31T06:38:18.974Z,116.57
2018-01-31T06:40:48.440Z,109.60
2018-01-31T06:43:17.226Z,113.93
2018-01-31T06:45:45.727Z,122.93
2018-01-31T06:48:14.225Z,144.87
2018-01-31T06:50:43.116Z,129.57
2018-01-31T06:53:11.613Z,138.43
2018-01-31T06:55:40.872Z,151.73
2018-01-31T06:58:09.714Z,128.00
2018-01-31T07:00:38.218Z,118.57
2018-01-31T07:03:06.718Z,117.23
2018-01-31T07:05:35.255Z,112.93
2018-01-31T07:08:04.547Z,103.00
2018-01-31T07:10:33.848Z,74.60
2018-01-31T07:13:03.258Z,71.23
2018-01-31T07:15:32.512Z,51.63
2018-01-31T07:18:01.044Z,38.30
2018-01-31T07:20:29.810Z,30.90
2018-01-31T07:22:58.311Z,18.23
2018-01-31T07:25:27.571Z,31.87
2018-01-31T07:27:56.113Z,20.90
2018-01-31T07:30:24.595Z,21.93
2018-01-31T07:32:53.145Z,23.27
2018-01-31T07:35:22.455Z,11.73
2018-01-31T07:37:50.948Z,13.30
2018-01-31T07:40:19.439Z,13.40
2018-01-31T07:42:48.288Z,15.27
2018-01-31T07:45:16.829Z,15.23
2018-01-31T07:47:45.427Z,18.07
2018-01-31T07:50:14.248Z,11.77
2018-01-31T07:52:43.507Z,11.70
2018-01-31T07:55:11.998Z,12.70
2018-01-31T07:57:40.709Z,12.73
2018-01-31T08:00:10.031Z,10.03
2018-01-31T08:02:39.274Z,14.40
2018-01-31T08:05:07.860Z,12.13
2018-01-31T08:07:36.379Z,15.97
2018-01-31T08:10:05.640Z,17.23
2018-01-31T08:12:34.263Z,11.43
2018-01-31T08:15:03.583Z,8.93
2018-01-31T08:17:32.132Z,10.87
2018-01-31T08:20:02.526Z,9.77
2018-01-31T08:22:31.012Z,12.00
2018-01-31T08:24:59.551Z,8.97
2018-01-31T08:27:28.320Z,14.20
2018-01-31T08:29:56.861Z,13.23
2018-01-31T08:32:25.407Z,14.57
2018-01-31T08:34:54.166Z,11.63
2018-01-31T08:37:22.658Z,12.10
2018-01-31T08:39:51.911Z,10.27
2018-01-31T08:42:20.494Z,17.93
2018-01-31T08:44:48.994Z,20.07
2018-01-31T08:47:17.475Z,12.17
2018-01-31T08:49:46.183Z,10.07
2018-01-31T08:52:14.731Z,11.53
2018-01-31T08:54:43.289Z,12.47
2018-01-31T08:57:11.872Z,9.27
2018-01-31T08:59:40.419Z,9.97
2018-01-31T09:02:09.684Z,9.17
2018-01-31T09:04:38.235Z,8.77
2018-01-31T09:07:06.723Z,7.07
2018-01-31T09:09:35.215Z,10.73
2018-01-31T09:12:03.946Z,8.33
2018-01-31T09:14:33.264Z,9.90
2018-01-31T09:17:01.767Z,16.37
2018-01-31T09:19:31.119Z,14.83
2018-01-31T09:21:59.629Z,11.43
2018-01-31T09:24:28.940Z,11.13
2018-01-31T09:26:57.491Z,11.03
2018-01-31T09:29:25.995Z,19.00
2018-01-31T09:31:54.490Z,8.87
2018-01-31T09:34:23.269Z,8.87
2018-01-31T09:36:51.828Z,8.53
2018-01-31T09:39:20.327Z,10.03
2018-01-31T09:41:48.891Z,8.23
2018-01-31T09:44:17.387Z,12.53
2018-01-31T09:46:45.886Z,10.73
2018-01-31T09:49:14.489Z,10.63
2018-01-31T09:51:43.816Z,11.87
2018-01-31T09:54:12.373Z,14.30
2018-01-31T09:56:41.749Z,14.23
2018-01-31T09:59:10.312Z,11.90
2018-01-31T10:01:38.880Z,23.57
2018-01-31T10:04:07.475Z,13.73
2018-01-31T10:06:36.032Z,10.50
2018-01-31T10:09:04.628Z,12.97
2018-01-31T10:11:33.226Z,13.77
2018-01-31T10:14:01.780Z,8.00
2018-01-31T10:16:30.338Z,6.27
2018-01-31T10:18:58.940Z,9.27
2018-01-31T10:21:27.491Z,7.13
2018-01-31T10:23:56.044Z,7.80
2018-01-31T10:26:24.940Z,7.73
2018-01-31T10:28:54.267Z,11.17
2018-01-31T10:31:22.821Z,10.60
2018-01-31T10:33:52.292Z,9.93
2018-01-31T10:36:20.844Z,7.17
2018-01-31T10:38:49.409Z,9.53
2018-01-31T10:41:18.771Z,6.27
2018-01-31T10:43:47.336Z,8.07
2018-01-31T10:46:15.888Z,8.47
2018-01-31T10:48:44.504Z,5.27
2018-01-31T10:51:13.109Z,9.97
2018-01-31T10:58:39.759Z,7.77
2018-01-31T11:01:08.311Z,7.30
2018-01-31T11:03:36.912Z,7.20
2018-01-31T11:06:05.468Z,5.00
2018-01-31T11:08:34.028Z,3.30
2018-01-31T11:11:02.628Z,6.93
2018-01-31T11:13:31.202Z,4.70
2018-01-31T11:16:00.520Z,6.90
2018-01-31T11:18:29.217Z,7.83
2018-01-31T11:20:58.537Z,4.13
2018-01-31T11:23:27.095Z,3.17
2018-01-31T11:25:56.459Z,3.23
2018-01-31T11:28:25.016Z,4.60
2018-01-31T11:30:53.616Z,5.50
2018-01-31T11:33:22.981Z,5.10
2018-01-31T11:35:51.552Z,3.87
2018-01-31T11:38:20.103Z,3.97
2018-01-31T11:40:48.925Z,3.60
2018-01-31T11:43:17.472Z,4.27
2018-01-31T11:45:46.032Z,5.40
2018-01-31T11:48:15.496Z,10.13
2018-01-31T11:50:44.048Z,8.37
2018-01-31T11:53:12.600Z,8.53
2018-01-31T11:55:41.404Z,10.13
2018-01-31T11:58:10.025Z,2.33
2018-01-31T12:00:50.611Z,2.43
2018-01-31T12:03:19.168Z,5.17
2018-01-31T12:05:47.720Z,3.57
2018-01-31T12:08:16.648Z,5.23
2018-01-31T12:10:45.205Z,6.10
2018-01-31T12:16:38.628Z,3.60
2018-01-31T12:22:24.900Z,2.40
2018-01-31T12:25:11.325Z,1.30
2018-01-31T12:27:57.444Z,1.30
2018-01-31T12:33:49.817Z,2.77
2018-01-31T12:36:36.132Z,2.80
2018-01-31T12:39:03.919Z,2.70
2018-01-31T12:41:31.684Z,4.27
2018-01-31T12:43:59.496Z,12.47
2018-01-31T12:46:45.788Z,9.13
2018-01-31T12:49:32.136Z,12.27
2018-01-31T12:52:29.229Z,7.47
2018-01-31T12:55:15.780Z,4.53
2018-01-31T12:58:01.981Z,8.50
2018-01-31T13:03:53.676Z,24.77
2018-01-31T13:06:40.124Z,14.77
2018-01-31T13:12:38.536Z,16.30
2018-01-31T13:15:24.779Z,15.87
2018-01-31T13:21:23.672Z,11.77
2018-01-31T13:27:22.515Z,4.87
2018-01-31T13:30:08.856Z,4.60
2018-01-31T13:33:00.548Z,11.57
2018-01-31T13:35:47.062Z,9.47
2018-01-31T13:38:33.188Z,2.60
2018-01-31T13:41:19.779Z,2.63
2018-01-31T13:47:15.020Z,3.90
2018-01-31T13:50:01.324Z,12.53
2018-01-31T13:52:47.611Z,4.23
2018-01-31T13:55:33.708Z,7.50
2018-01-31T13:58:20.300Z,4.87
2018-01-31T14:01:06.612Z,7.13
2018-01-31T14:03:53.108Z,5.00
2018-01-31T14:06:39.324Z,2.50
2018-01-31T14:09:25.657Z,5.43
2018-01-31T14:15:21.508Z,13.17
2018-01-31T14:18:07.736Z,12.83
2018-01-31T14:20:54.096Z,15.70
2018-01-31T14:23:40.140Z,22.37
2018-01-31T14:29:28.508Z,37.27
2018-01-31T14:32:14.800Z,31.47
2018-01-31T14:35:00.969Z,46.50
2018-01-31T14:37:29.601Z,52.07
2018-01-31T14:39:58.136Z,35.47
2018-01-31T14:42:26.109Z,39.07
2018-01-31T14:44:54.071Z,61.13
2018-01-31T14:47:22.045Z,39.53
2018-01-31T14:49:50.016Z,29.63
2018-01-31T14:52:18.116Z,36.40
2018-01-31T14:54:46.812Z,24.50
2018-01-31T14:57:15.504Z,22.37
2018-01-31T14:59:43.644Z,13.97
2018-01-31T15:02:12.394Z,17.23
2018-01-31T15:04:40.354Z,15.93
2018-01-31T15:07:08.329Z,16.70
2018-01-31T15:09:36.218Z,19.87
2018-01-31T15:12:04.112Z,45.27
2018-01-31T15:14:32.805Z,166.13
2018-01-31T15:17:00.675Z,74.23
2018-01-31T15:19:28.587Z,136.20
2018-01-31T15:21:56.756Z,138.30
2018-01-31T15:24:24.697Z,54.83
2018-01-31T15:26:52.564Z,148.67
2018-01-31T15:29:20.840Z,91.80
2018-01-31T15:31:48.769Z,132.83
2018-01-31T15:34:16.675Z,90.93
2018-01-31T15:36:45.256Z,83.47
2018-01-31T15:39:13.110Z,90.07
2018-01-31T15:41:41.003Z,68.63
2018-01-31T15:44:09.740Z,116.23
2018-01-31T15:46:37.713Z,216.13
2018-01-31T15:49:05.608Z,270.67
2018-01-31T15:51:34.341Z,296.30
2018-01-31T15:54:02.265Z,162.70
2018-01-31T15:56:30.933Z,144.77
2018-01-31T15:58:58.881Z,236.77
2018-01-31T16:01:26.797Z,185.50
2018-01-31T16:03:54.564Z,146.00
2018-01-31T16:06:22.835Z,178.00
2018-01-31T16:08:50.808Z,221.20
2018-01-31T16:11:18.691Z,192.53
2018-01-31T16:13:46.721Z,165.90
2018-01-31T16:16:14.655Z,136.43
2018-01-31T16:19:01.000Z,146.80
2018-01-31T16:21:29.669Z,132.23
2018-01-31T16:23:58.355Z,110.43
2018-01-31T16:26:27.149Z,126.47
2018-01-31T16:32:24.697Z,92.43
2018-01-31T16:34:53.382Z,109.37
2018-01-31T16:37:22.043Z,129.97
2018-01-31T16:39:50.779Z,144.57
2018-01-31T16:42:20.231Z,120.90
2018-01-31T16:44:48.891Z,134.63
2018-01-31T16:47:17.735Z,91.57
2018-01-31T16:49:46.465Z,93.83
2018-01-31T16:52:15.120Z,78.73
2018-01-31T16:54:43.904Z,71.57
2018-01-31T16:57:12.590Z,69.73
2018-01-31T16:59:41.223Z,63.03
2018-01-31T17:02:10.744Z,63.67
2018-01-31T17:04:40.249Z,86.80
2018-01-31T17:07:08.935Z,80.57
2018-01-31T17:09:37.730Z,83.77
2018-01-31T17:12:06.418Z,87.37
2018-01-31T17:14:36.606Z,83.53
2018-01-31T17:17:06.370Z,78.03
2018-01-31T17:19:35.822Z,107.80
2018-01-31T17:22:04.553Z,168.00
2018-01-31T17:24:33.152Z,102.23
2018-01-31T17:27:01.867Z,76.77
2018-01-31T17:29:31.390Z,78.03
2018-01-31T17:32:00.383Z,102.23
2018-01-31T17:34:29.073Z,107.27
2018-01-31T17:36:58.534Z,189.20
2018-01-31T17:39:27.526Z,171.47
2018-01-31T17:41:56.116Z,182.07
2018-01-31T17:44:24.823Z,162.50
2018-01-31T17:46:53.862Z,113.13
2018-01-31T17:49:22.577Z,66.77
2018-01-31T17:51:51.267Z,680.77
2018-01-31T17:54:20.069Z,303.23
2018-01-31T17:56:48.836Z,62.27
2018-01-31T17:59:17.519Z,60.30
2018-01-31T18:01:46.610Z,90.87
2018-01-31T18:04:15.264Z,101.53
2018-01-31T18:06:43.982Z,66.33
2018-01-31T18:09:12.676Z,54.70
2018-01-31T18:11:41.354Z,38.43
2018-01-31T18:14:09.984Z,39.03
2018-01-31T18:16:39.601Z,35.57
2018-01-31T18:19:08.238Z,41.70
2018-01-31T18:21:36.821Z,43.83
2018-01-31T18:24:06.428Z,58.73
2018-01-31T18:26:35.069Z,70.87
2018-01-31T18:29:03.787Z,71.10
2018-01-31T18:31:32.793Z,80.73
2018-01-31T18:34:01.356Z,78.97
2018-01-31T18:36:29.912Z,80.13
2018-01-31T18:38:58.538Z,80.87
2018-01-31T18:41:27.087Z,64.60
2018-01-31T18:43:55.635Z,43.33
2018-01-31T18:46:24.504Z,43.13
2018-01-31T18:48:53.060Z,51.10
2018-01-31T18:51:21.623Z,50.00
2018-01-31T18:53:50.216Z,41.87
2018-01-31T18:56:18.774Z,42.23
2018-01-31T18:58:48.087Z,34.40
2018-01-31T19:01:16.691Z,32.50
2018-01-31T19:03:45.244Z,42.33
2018-01-31T19:06:14.561Z,49.50
2018-01-31T19:08:43.156Z,57.00
2018-01-31T19:11:11.710Z,63.07
2018-01-31T19:13:41.029Z,56.77
2018-01-31T19:16:09.956Z,52.17
2018-01-31T19:18:39.272Z,48.67
2018-01-31T19:21:07.824Z,59.20
2018-01-31T19:23:36.798Z,49.00
2018-01-31T19:26:06.120Z,58.20
2018-01-31T19:28:34.819Z,53.27
2018-01-31T19:31:03.844Z,63.40
2018-01-31T19:33:32.392Z,86.73
2018-01-31T19:36:00.992Z,75.40
2018-01-31T19:38:29.690Z,44.37
2018-01-31T19:40:58.365Z,38.57
2018-01-31T19:43:27.049Z,28.60
2018-01-31T19:45:55.993Z,26.30
2018-01-31T19:48:24.556Z,19.53
2018-01-31T19:50:53.302Z,26.03
2018-01-31T19:53:22.306Z,35.27
2018-01-31T19:55:50.994Z,71.07
2018-01-31T19:58:19.630Z,97.63
2018-01-31T20:00:49.126Z,52.40
2018-01-31T20:03:18.586Z,56.40
2018-01-31T20:05:47.208Z,51.10
2018-01-31T20:08:16.874Z,52.37
2018-01-31T20:10:45.566Z,42.17
2018-01-31T20:13:14.187Z,32.93
2018-01-31T20:15:43.748Z,29.93
2018-01-31T20:18:13.104Z,25.20
2018-01-31T20:20:42.558Z,28.77
2018-01-31T20:23:11.452Z,31.83
2018-01-31T20:25:40.138Z,25.33
2018-01-31T20:28:08.824Z,30.97
2018-01-31T20:30:37.790Z,25.63
2018-01-31T20:33:06.476Z,36.60
2018-01-31T20:35:35.567Z,38.57
2018-01-31T20:38:04.465Z,52.33
2018-01-31T20:40:33.040Z,60.33
2018-01-31T20:43:01.675Z,36.10
2018-01-31T20:45:31.539Z,38.87
2018-01-31T20:48:00.335Z,63.60
2018-01-31T20:50:28.959Z,83.83
2018-01-31T20:52:58.774Z,64.80
2018-01-31T20:55:28.236Z,59.93
2018-01-31T20:57:56.857Z,69.90
2018-01-31T21:00:26.523Z,101.93
2018-01-31T21:02:55.221Z,107.80
2018-01-31T21:05:23.900Z,106.73
2018-01-31T21:07:52.632Z,137.57
2018-01-31T21:10:22.084Z,123.00
2018-01-31T21:12:50.718Z,119.13
2018-01-31T21:15:20.779Z,109.67
2018-01-31T21:17:49.480Z,111.40
2018-01-31T21:20:18.117Z,98.57
2018-01-31T21:22:47.613Z,69.10
2018-01-31T21:25:17.074Z,52.57
2018-01-31T21:27:45.858Z,44.93
2018-01-31T21:30:14.736Z,41.43
2018-01-31T21:32:43.437Z,41.03
2018-01-31T21:35:12.074Z,58.73
2018-01-31T21:37:41.569Z,74.43
2018-01-31T21:40:11.032Z,77.87
2018-01-31T21:42:39.612Z,86.70
2018-01-31T21:45:08.344Z,79.37
2018-01-31T21:47:37.802Z,125.63
2018-01-31T21:50:06.488Z,105.80
2018-01-31T21:52:35.273Z,112.37
2018-01-31T21:55:03.958Z,75.00
2018-01-31T21:57:50.611Z,78.60
2018-01-31T22:00:20.069Z,84.27
2018-01-31T22:02:48.722Z,71.37
2018-01-31T22:05:17.715Z,83.00
2018-01-31T22:07:46.434Z,48.17
2018-01-31T22:10:15.074Z,58.17
2018-01-31T22:12:44.521Z,46.77
2018-01-31T22:15:13.215Z,72.37
2018-01-31T22:17:41.849Z,43.53
2018-01-31T22:20:11.345Z,43.10
2018-01-31T22:22:40.809Z,37.03
2018-01-31T22:25:09.594Z,29.87
2018-01-31T22:27:38.280Z,25.37
2018-01-31T22:30:07.788Z,27.80
2018-01-31T22:32:36.407Z,28.77
2018-01-31T22:35:05.873Z,58.07
2018-01-31T22:37:34.559Z,31.60
2018-01-31T22:40:03.348Z,35.33
2018-01-31T22:42:32.140Z,48.53
2018-01-31T22:45:00.824Z,52.20
2018-01-31T22:47:29.461Z,60.57
2018-01-31T22:49:58.958Z,67.07
2018-01-31T22:52:28.418Z,84.20
2018-01-31T22:54:56.964Z,70.67
2018-01-31T22:57:25.680Z,58.90
2018-01-31T22:59:54.367Z,79.87
2018-01-31T23:02:22.995Z,57.20
2018-01-31T23:04:52.462Z,48.73
2018-01-31T23:07:21.148Z,43.87
2018-01-31T23:09:49.826Z,33.50
2018-01-31T23:12:24.716Z,30.77
2018-01-31T23:14:55.192Z,26.73
2018-01-31T23:17:29.717Z,36.43
2018-01-31T23:19:59.264Z,28.30
2018-01-31T23:22:29.030Z,26.13
2018-01-31T23:24:57.610Z,37.00
2018-01-31T23:27:26.244Z,27.50
2018-01-31T23:29:55.800Z,26.57
2018-01-31T23:32:24.392Z,63.13
2018-01-31T23:34:56.145Z,82.30
2018-01-31T23:37:24.831Z,118.20
2018-01-31T23:39:54.282Z,130.60
2018-01-31T23:42:24.003Z,130.37
2018-01-31T23:44:52.720Z,96.23
2018-01-31T23:47:21.418Z,84.97
2018-01-31T23:49:50.202Z,65.03
2018-01-31T23:52:18.999Z,48.70
2018-01-31T23:54:47.688Z,41.77
2018-01-31T23:57:16.409Z,59.57
2018-01-31T23:59:45.867Z,89.83
